createdAt,value
2019-02-25T00:02:29.892Z,21.60
2019-02-25T00:04:58.471Z,21.60
2019-02-25T00:07:26.790Z,21.50
2019-02-25T00:09:55.075Z,21.50
2019-02-25T00:12:23.396Z,21.50
2019-02-25T00:14:51.681Z,21.50
2019-02-25T00:17:20.003Z,21.50
2019-02-25T00:19:48.646Z,21.40
2019-02-25T00:22:17.227Z,21.40
2019-02-25T00:24:45.543Z,21.40
2019-02-25T00:27:13.827Z,21.40
2019-02-25T00:29:42.190Z,21.40
2019-02-25T00:32:10.847Z,21.40
2019-02-25T00:34:39.423Z,21.40
2019-02-25T00:37:08.016Z,21.40
2019-02-25T00:39:36.592Z,21.30
2019-02-25T00:42:04.904Z,21.30
2019-02-25T00:44:33.196Z,21.30
2019-02-25T00:47:01.506Z,21.30
2019-02-25T00:49:30.126Z,21.30
2019-02-25T00:51:58.486Z,21.20
2019-02-25T00:54:26.771Z,21.20
2019-02-25T00:56:55.078Z,21.20
2019-02-25T00:59:23.383Z,21.10
2019-02-25T01:01:51.873Z,21.10
2019-02-25T01:04:20.395Z,21.10
2019-02-25T01:06:48.814Z,21.10
2019-02-25T01:09:17.093Z,21.10
2019-02-25T01:11:45.398Z,21.10
2019-02-25T01:14:13.695Z,21.10
2019-02-25T01:16:42.274Z,21.00
2019-02-25T01:19:10.859Z,21.00
2019-02-25T01:21:39.164Z,21.00
2019-02-25T01:24:07.438Z,21.00
2019-02-25T01:26:36.098Z,21.00
2019-02-25T01:29:04.406Z,21.00
2019-02-25T01:31:32.713Z,21.00
2019-02-25T01:34:00.993Z,20.90
2019-02-25T01:36:29.305Z,20.90
2019-02-25T01:38:57.610Z,20.90
2019-02-25T01:41:25.910Z,20.90
2019-02-25T01:43:54.204Z,20.90
2019-02-25T01:46:22.824Z,20.90
2019-02-25T01:48:52.139Z,20.90
2019-02-25T01:51:22.094Z,20.90
2019-02-25T01:53:50.450Z,20.90
2019-02-25T01:56:19.004Z,20.80
2019-02-25T01:58:47.303Z,20.80
2019-02-25T02:01:15.867Z,20.80
2019-02-25T02:03:44.157Z,20.80
2019-02-25T02:06:12.446Z,20.80
2019-02-25T02:08:40.743Z,20.80
2019-02-25T02:11:09.380Z,20.70
2019-02-25T02:13:39.608Z,20.70
2019-02-25T02:16:08.178Z,20.80
2019-02-25T02:18:36.778Z,20.70
2019-02-25T02:21:05.090Z,20.70
2019-02-25T02:23:33.386Z,20.70
2019-02-25T02:26:01.687Z,20.70
2019-02-25T02:28:30.287Z,20.70
2019-02-25T02:31:01.273Z,20.70
2019-02-25T02:33:29.583Z,20.70
2019-02-25T02:35:58.204Z,20.70
2019-02-25T02:38:26.504Z,20.70
2019-02-25T02:40:54.786Z,20.70
2019-02-25T02:43:23.427Z,20.70
2019-02-25T02:45:58.178Z,20.70
2019-02-25T02:48:35.642Z,20.60
2019-02-25T02:51:03.928Z,20.60
2019-02-25T02:53:32.228Z,20.60
2019-02-25T02:56:00.513Z,20.70
2019-02-25T02:58:29.162Z,20.60
2019-02-25T03:00:57.742Z,20.60
2019-02-25T03:03:26.325Z,20.60
2019-02-25T03:05:54.910Z,20.60
2019-02-25T03:08:23.298Z,20.60
2019-02-25T03:10:51.655Z,20.60
2019-02-25T03:13:20.250Z,20.60
2019-02-25T03:15:48.534Z,20.60
2019-02-25T03:18:16.849Z,20.60
2019-02-25T03:20:45.218Z,20.60
2019-02-25T03:23:13.498Z,20.50
2019-02-25T03:25:42.148Z,20.50
2019-02-25T03:28:10.730Z,20.50
2019-02-25T03:30:39.029Z,20.50
2019-02-25T03:33:07.314Z,20.50
2019-02-25T03:35:35.969Z,20.50
2019-02-25T03:38:04.556Z,20.50
2019-02-25T03:40:32.833Z,20.50
2019-02-25T03:43:01.420Z,20.50
2019-02-25T03:45:30.099Z,20.50
2019-02-25T03:47:58.383Z,20.50
2019-02-25T03:50:26.958Z,20.50
2019-02-25T03:52:55.548Z,20.40
2019-02-25T03:55:23.841Z,20.40
2019-02-25T03:57:52.196Z,20.40
2019-02-25T04:00:23.056Z,20.40
2019-02-25T04:02:51.423Z,20.40
2019-02-25T04:05:20.001Z,20.40
2019-02-25T04:07:48.288Z,20.40
2019-02-25T04:10:16.602Z,20.40
2019-02-25T04:12:44.948Z,20.40
2019-02-25T04:15:22.118Z,20.40
2019-02-25T04:17:50.397Z,20.40
2019-02-25T04:20:18.682Z,20.30
2019-02-25T04:22:46.996Z,20.40
2019-02-25T04:25:15.647Z,20.30
2019-02-25T04:27:44.007Z,20.30
2019-02-25T04:30:14.440Z,20.30
2019-02-25T04:32:42.727Z,20.30
2019-02-25T04:35:12.500Z,20.30
2019-02-25T04:37:40.811Z,20.30
2019-02-25T04:40:11.244Z,20.30
2019-02-25T04:42:39.589Z,20.30
2019-02-25T04:45:10.895Z,20.30
2019-02-25T04:47:39.186Z,20.30
2019-02-25T04:50:09.574Z,20.30
2019-02-25T04:52:38.150Z,20.30
2019-02-25T04:55:08.726Z,20.20
2019-02-25T04:57:37.014Z,20.30
2019-02-25T05:00:11.408Z,20.20
2019-02-25T05:02:40.056Z,20.20
2019-02-25T05:05:09.066Z,20.20
2019-02-25T05:07:37.355Z,20.20
2019-02-25T05:10:09.039Z,20.20
2019-02-25T05:12:38.300Z,20.20
2019-02-25T05:15:07.850Z,20.20
2019-02-25T05:17:36.120Z,20.20
2019-02-25T05:20:05.837Z,20.20
2019-02-25T05:22:34.113Z,20.20
2019-02-25T05:25:02.736Z,20.20
2019-02-25T05:27:31.038Z,20.20
2019-02-25T05:29:59.351Z,20.20
2019-02-25T05:32:27.627Z,20.20
2019-02-25T05:34:56.249Z,20.20
2019-02-25T05:37:24.542Z,20.20
2019-02-25T05:39:52.840Z,20.20
2019-02-25T05:42:21.113Z,20.10
2019-02-25T05:44:49.412Z,20.10
2019-02-25T05:47:17.682Z,20.10
2019-02-25T05:49:46.083Z,20.10
2019-02-25T05:52:14.707Z,20.10
2019-02-25T05:54:43.289Z,20.10
2019-02-25T05:57:11.582Z,20.10
2019-02-25T05:59:39.862Z,20.10
2019-02-25T06:02:08.518Z,20.10
2019-02-25T06:04:37.115Z,20.10
2019-02-25T06:07:05.408Z,20.10
2019-02-25T06:09:33.684Z,20.10
2019-02-25T06:12:01.993Z,20.10
2019-02-25T06:14:30.263Z,20.10
2019-02-25T06:17:00.572Z,20.10
2019-02-25T06:19:28.578Z,20.10
2019-02-25T06:21:57.041Z,20.10
2019-02-25T06:24:25.319Z,20.10
2019-02-25T06:26:53.600Z,20.00
2019-02-25T06:29:22.230Z,20.00
2019-02-25T06:31:50.514Z,20.00
2019-02-25T06:34:18.800Z,20.10
2019-02-25T06:36:47.118Z,20.00
2019-02-25T06:39:15.417Z,20.00
2019-02-25T06:41:44.035Z,20.00
2019-02-25T06:44:12.315Z,20.00
2019-02-25T06:46:40.611Z,20.00
2019-02-25T06:49:09.255Z,20.00
2019-02-25T06:51:37.971Z,20.10
2019-02-25T06:54:06.352Z,20.00
2019-02-25T06:56:34.703Z,20.00
2019-02-25T06:59:03.289Z,20.00
2019-02-25T07:01:31.571Z,20.00
2019-02-25T07:04:04.967Z,20.00
2019-02-25T07:06:34.981Z,20.00
2019-02-25T07:09:07.625Z,20.00
2019-02-25T07:11:37.874Z,20.00
2019-02-25T07:14:10.476Z,20.00
2019-02-25T07:16:40.418Z,20.00
2019-02-25T07:19:13.565Z,20.00
2019-02-25T07:21:43.486Z,20.00
2019-02-25T07:24:16.159Z,20.00
2019-02-25T07:26:46.097Z,20.00
2019-02-25T07:29:31.458Z,20.00
2019-02-25T07:32:19.800Z,20.00
2019-02-25T07:35:01.652Z,20.00
2019-02-25T07:37:47.954Z,20.00
2019-02-25T07:40:34.191Z,20.00
2019-02-25T07:43:04.130Z,20.00
2019-02-25T07:45:43.022Z,20.00
2019-02-25T07:48:29.436Z,20.00
2019-02-25T07:51:02.218Z,20.00
2019-02-25T07:53:38.278Z,20.00
2019-02-25T07:56:14.071Z,20.00
2019-02-25T07:58:55.920Z,20.00
2019-02-25T08:01:25.880Z,20.00
2019-02-25T08:04:02.202Z,19.90
2019-02-25T08:06:44.318Z,20.00
2019-02-25T08:09:19.844Z,20.00
2019-02-25T08:11:55.725Z,20.00
2019-02-25T08:14:42.319Z,20.00
2019-02-25T08:17:14.878Z,20.00
2019-02-25T08:20:00.265Z,20.00
2019-02-25T08:22:36.222Z,20.10
2019-02-25T08:25:24.372Z,20.10
2019-02-25T08:28:00.350Z,20.10
2019-02-25T08:30:30.543Z,20.10
2019-02-25T08:33:15.616Z,20.10
2019-02-25T08:36:01.006Z,20.20
2019-02-25T08:38:37.141Z,20.20
2019-02-25T08:41:24.278Z,20.20
2019-02-25T08:43:54.489Z,20.20
2019-02-25T08:46:27.588Z,20.20
2019-02-25T08:48:57.830Z,20.30
2019-02-25T08:51:26.499Z,20.30
2019-02-25T08:53:55.079Z,20.30
2019-02-25T08:56:23.377Z,20.30
2019-02-25T08:58:51.955Z,20.40
2019-02-25T09:01:20.259Z,20.40
2019-02-25T09:03:48.571Z,20.40
2019-02-25T09:06:17.384Z,20.40
2019-02-25T09:08:45.678Z,20.50
2019-02-25T09:11:14.540Z,20.50
2019-02-25T09:13:43.335Z,20.50
2019-02-25T09:16:11.618Z,20.60
2019-02-25T09:18:39.901Z,20.60
2019-02-25T09:21:08.358Z,20.60
2019-02-25T09:23:37.086Z,20.70
2019-02-25T09:26:05.665Z,20.70
2019-02-25T09:28:34.324Z,20.70
2019-02-25T09:31:02.638Z,20.80
2019-02-25T09:33:30.987Z,20.80
2019-02-25T09:35:59.582Z,20.80
2019-02-25T09:38:28.156Z,20.90
2019-02-25T09:40:56.474Z,20.90
2019-02-25T09:43:24.786Z,21.00
2019-02-25T09:45:53.149Z,21.00
2019-02-25T09:48:21.766Z,21.10
2019-02-25T09:50:50.086Z,21.20
2019-02-25T09:53:18.842Z,21.20
2019-02-25T09:55:47.149Z,21.30
2019-02-25T09:58:15.432Z,21.30
2019-02-25T10:00:43.737Z,21.30
2019-02-25T10:03:12.354Z,21.40
2019-02-25T10:05:41.043Z,21.40
2019-02-25T10:08:09.352Z,21.50
2019-02-25T10:10:37.643Z,21.50
2019-02-25T10:13:06.277Z,21.60
2019-02-25T10:15:34.866Z,21.50
2019-02-25T10:18:03.450Z,21.60
2019-02-25T10:20:31.768Z,21.60
2019-02-25T10:23:00.414Z,21.60
2019-02-25T10:25:28.989Z,21.60
2019-02-25T10:27:59.218Z,21.60
2019-02-25T10:30:27.794Z,21.60
2019-02-25T10:32:56.083Z,21.70
2019-02-25T10:35:29.158Z,21.70
2019-02-25T10:37:57.727Z,21.80
2019-02-25T10:40:27.548Z,21.80
2019-02-25T10:42:56.051Z,21.80
2019-02-25T10:45:24.356Z,21.90
2019-02-25T10:47:57.624Z,21.80
2019-02-25T10:50:22.678Z,21.90
2019-02-25T10:52:50.958Z,21.90
2019-02-25T10:55:31.454Z,21.90
2019-02-25T10:58:01.513Z,22.00
2019-02-25T11:00:30.218Z,22.10
2019-02-25T11:02:58.577Z,22.10
2019-02-25T11:05:29.959Z,22.10
2019-02-25T11:07:57.159Z,22.10
2019-02-25T11:10:38.914Z,22.10
2019-02-25T11:13:07.209Z,22.20
2019-02-25T11:15:37.511Z,22.20
2019-02-25T11:18:07.770Z,22.20
2019-02-25T11:20:37.733Z,22.20
2019-02-25T11:23:06.178Z,22.20
2019-02-25T11:25:34.455Z,22.30
2019-02-25T11:28:04.946Z,22.30
2019-02-25T11:30:33.159Z,22.30
2019-02-25T11:33:01.461Z,22.40
2019-02-25T11:35:29.755Z,22.40
2019-02-25T11:37:59.622Z,22.40
2019-02-25T11:40:30.984Z,22.40
2019-02-25T11:42:58.512Z,22.40
2019-02-25T11:45:26.797Z,22.50
2019-02-25T11:47:55.105Z,22.50
2019-02-25T11:50:23.411Z,22.50
2019-02-25T11:52:52.026Z,22.50
2019-02-25T11:55:21.859Z,22.50
2019-02-25T11:57:50.725Z,22.60
2019-02-25T12:00:26.239Z,22.70
2019-02-25T12:02:54.542Z,22.80
2019-02-25T12:05:22.851Z,22.70
2019-02-25T12:07:51.428Z,22.80
2019-02-25T12:10:19.725Z,22.80
2019-02-25T12:12:48.379Z,22.80
2019-02-25T12:15:19.085Z,22.80
2019-02-25T12:17:47.792Z,22.80
2019-02-25T12:20:16.079Z,22.70
2019-02-25T12:22:44.402Z,22.70
2019-02-25T12:25:21.579Z,22.70
2019-02-25T12:27:49.887Z,22.60
2019-02-25T12:30:20.377Z,22.60
2019-02-25T12:32:49.130Z,22.60
2019-02-25T12:35:17.723Z,22.60
2019-02-25T12:37:46.154Z,22.60
2019-02-25T12:40:15.936Z,22.50
2019-02-25T12:42:44.238Z,22.50
2019-02-25T12:45:14.352Z,22.50
2019-02-25T12:47:42.630Z,22.50
2019-02-25T12:50:20.187Z,22.50
2019-02-25T12:52:48.869Z,22.50
2019-02-25T12:55:20.789Z,22.50
2019-02-25T12:57:49.081Z,22.50
2019-02-25T13:00:18.289Z,22.40
2019-02-25T13:02:46.566Z,22.40
2019-02-25T13:05:19.948Z,22.40
2019-02-25T13:07:48.651Z,22.40
2019-02-25T13:10:17.786Z,22.40
2019-02-25T13:12:46.370Z,22.40
2019-02-25T13:15:19.611Z,22.30
2019-02-25T13:17:47.886Z,22.40
2019-02-25T13:20:16.597Z,22.40
2019-02-25T13:22:44.976Z,22.30
2019-02-25T13:25:21.835Z,22.30
2019-02-25T13:27:51.837Z,22.30
2019-02-25T13:30:20.662Z,22.30
2019-02-25T13:32:49.059Z,22.20
2019-02-25T13:35:17.447Z,22.20
2019-02-25T13:37:45.738Z,22.30
2019-02-25T13:40:17.832Z,22.30
2019-02-25T13:42:46.288Z,22.20
2019-02-25T13:45:18.128Z,22.20
2019-02-25T13:47:46.999Z,22.20
2019-02-25T13:50:16.615Z,22.30
2019-02-25T13:52:48.518Z,22.30
2019-02-25T13:55:23.081Z,22.30
2019-02-25T13:57:51.465Z,22.20
2019-02-25T14:00:21.464Z,22.10
2019-02-25T14:02:49.875Z,22.10
2019-02-25T14:05:18.755Z,22.00
2019-02-25T14:07:50.221Z,22.00
2019-02-25T14:10:19.396Z,22.00
2019-02-25T14:12:48.078Z,21.90
2019-02-25T14:15:22.629Z,21.90
2019-02-25T14:17:51.020Z,21.80
2019-02-25T14:20:22.035Z,21.80
2019-02-25T14:22:50.457Z,21.80
2019-02-25T14:25:30.041Z,21.80
2019-02-25T14:27:58.533Z,21.90
2019-02-25T14:30:32.922Z,21.90
2019-02-25T14:32:59.017Z,22.00
2019-02-25T14:35:28.991Z,22.00
2019-02-25T14:38:02.454Z,22.00
2019-02-25T14:40:31.486Z,22.10
2019-02-25T14:42:59.986Z,22.10
2019-02-25T14:45:31.538Z,22.10
2019-02-25T14:47:59.854Z,22.10
2019-02-25T14:50:29.014Z,22.10
2019-02-25T14:52:57.683Z,22.10
2019-02-25T14:55:26.264Z,22.10
2019-02-25T14:57:55.270Z,22.00
2019-02-25T15:00:28.379Z,22.10
2019-02-25T15:02:56.168Z,22.10
2019-02-25T15:05:24.632Z,22.00
2019-02-25T15:07:53.463Z,22.00
2019-02-25T15:10:26.599Z,22.10
2019-02-25T15:12:56.442Z,22.00
2019-02-25T15:15:23.407Z,22.10
2019-02-25T15:17:52.776Z,22.00
2019-02-25T15:20:23.550Z,22.10
2019-02-25T15:22:53.278Z,22.00
2019-02-25T15:25:21.642Z,22.00
2019-02-25T15:27:50.550Z,22.00
2019-02-25T15:30:22.882Z,22.00
2019-02-25T15:32:55.693Z,22.00
2019-02-25T15:35:21.427Z,22.00
2019-02-25T15:37:50.732Z,21.90
2019-02-25T15:40:21.020Z,21.90
2019-02-25T15:43:05.763Z,21.90
2019-02-25T15:45:37.580Z,21.90
2019-02-25T15:48:06.221Z,21.90
2019-02-25T15:50:34.594Z,21.80
2019-02-25T15:53:05.110Z,21.90
2019-02-25T15:55:33.388Z,21.90
2019-02-25T15:58:01.800Z,21.80
2019-02-25T16:00:32.720Z,21.80
2019-02-25T16:03:01.137Z,21.80
2019-02-25T16:05:30.194Z,21.80
2019-02-25T16:08:02.391Z,21.80
2019-02-25T16:10:29.614Z,21.80
2019-02-25T16:12:59.926Z,21.80
2019-02-25T16:15:30.575Z,21.80
2019-02-25T16:17:59.412Z,21.80
2019-02-25T16:20:32.249Z,21.80
2019-02-25T16:23:00.344Z,21.80
2019-02-25T16:25:29.789Z,21.80
2019-02-25T16:27:58.817Z,21.70
2019-02-25T16:30:30.505Z,21.70
2019-02-25T16:32:57.307Z,21.70
2019-02-25T16:35:25.680Z,21.70
2019-02-25T16:37:55.218Z,21.70
2019-02-25T16:40:26.414Z,21.70
2019-02-25T16:42:57.017Z,21.70
2019-02-25T16:45:28.490Z,21.60
2019-02-25T16:47:56.031Z,21.60
2019-02-25T16:50:24.387Z,21.60
2019-02-25T16:52:53.009Z,21.60
2019-02-25T16:55:27.366Z,21.60
2019-02-25T16:57:55.386Z,21.60
2019-02-25T17:00:30.134Z,21.70
2019-02-25T17:03:01.362Z,21.60
2019-02-25T17:05:28.370Z,21.60
2019-02-25T17:07:57.039Z,21.60
2019-02-25T17:10:27.110Z,21.60
2019-02-25T17:12:56.032Z,21.50
2019-02-25T17:15:26.891Z,21.60
2019-02-25T17:17:58.387Z,21.50
2019-02-25T17:20:27.759Z,21.50
2019-02-25T17:22:55.464Z,21.50
2019-02-25T17:25:26.965Z,21.50
2019-02-25T17:27:53.895Z,21.50
2019-02-25T17:30:24.120Z,21.50
2019-02-25T17:32:52.851Z,21.50
2019-02-25T17:35:24.201Z,21.50
2019-02-25T17:37:53.359Z,21.40
2019-02-25T17:40:22.676Z,21.40
2019-02-25T17:42:53.750Z,21.40
2019-02-25T17:45:32.476Z,21.40
2019-02-25T17:48:03.216Z,21.40
2019-02-25T17:50:32.593Z,21.40
2019-02-25T17:53:01.357Z,21.40
2019-02-25T17:55:31.705Z,21.40
2019-02-25T17:58:01.083Z,21.40
2019-02-25T18:00:34.329Z,21.40
2019-02-25T18:03:03.676Z,21.40
2019-02-25T18:05:34.132Z,21.40
2019-02-25T18:08:03.029Z,21.40
2019-02-25T18:10:32.754Z,21.40
2019-02-25T18:13:05.993Z,21.40
2019-02-25T18:15:32.928Z,21.40
2019-02-25T18:18:01.434Z,21.40
2019-02-25T18:20:30.167Z,21.40
2019-02-25T18:22:58.847Z,21.40
2019-02-25T18:25:27.214Z,21.40
2019-02-25T18:27:55.896Z,21.40
2019-02-25T18:30:31.356Z,21.40
2019-02-25T18:33:02.812Z,21.40
2019-02-25T18:35:30.627Z,21.30
2019-02-25T18:38:02.597Z,21.30
2019-02-25T18:40:33.940Z,21.30
2019-02-25T18:43:06.768Z,21.30
2019-02-25T18:45:38.408Z,21.30
2019-02-25T18:48:08.733Z,21.30
2019-02-25T18:50:39.323Z,21.30
2019-02-25T18:53:07.760Z,21.30
2019-02-25T18:55:36.658Z,21.30
2019-02-25T18:58:07.929Z,21.30
2019-02-25T19:00:42.440Z,21.30
2019-02-25T19:03:11.508Z,21.30
2019-02-25T19:05:41.530Z,21.30
2019-02-25T19:08:19.798Z,21.30
2019-02-25T19:10:51.006Z,21.20
2019-02-25T19:13:22.731Z,21.20
2019-02-25T19:15:53.112Z,21.20
2019-02-25T19:18:22.158Z,21.20
2019-02-25T19:20:50.516Z,21.20
2019-02-25T19:23:19.825Z,21.20
2019-02-25T19:25:48.650Z,21.20
2019-02-25T19:28:19.637Z,21.20
2019-02-25T19:30:50.525Z,21.20
2019-02-25T19:33:20.484Z,21.20
2019-02-25T19:35:48.173Z,21.20
2019-02-25T19:38:17.801Z,21.20
2019-02-25T19:40:50.376Z,21.20
2019-02-25T19:43:16.711Z,21.20
2019-02-25T19:45:45.516Z,21.20
2019-02-25T19:48:14.169Z,21.20
2019-02-25T19:50:50.574Z,21.20
2019-02-25T19:53:15.149Z,21.20
2019-02-25T19:55:45.522Z,21.20
2019-02-25T19:58:13.214Z,21.10
2019-02-25T20:00:41.907Z,21.20
2019-02-25T20:03:10.297Z,21.20
2019-02-25T20:05:41.559Z,21.20
2019-02-25T20:08:10.207Z,21.20
2019-02-25T20:10:38.967Z,21.20
2019-02-25T20:13:08.687Z,21.10
2019-02-25T20:15:39.953Z,21.10
2019-02-25T20:18:09.331Z,21.10
2019-02-25T20:20:38.893Z,21.10
2019-02-25T20:23:08.676Z,21.10
2019-02-25T20:25:37.169Z,21.10
2019-02-25T20:28:05.841Z,21.10
2019-02-25T20:30:34.428Z,21.10
2019-02-25T20:33:03.872Z,21.10
2019-02-25T20:35:33.038Z,21.10
2019-02-25T20:38:03.226Z,21.10
2019-02-25T20:40:33.038Z,21.10
2019-02-25T20:43:03.125Z,21.10
2019-02-25T20:45:36.114Z,21.10
2019-02-25T20:48:04.689Z,21.10
2019-02-25T20:50:33.342Z,21.10
2019-02-25T20:53:05.564Z,21.10
2019-02-25T20:55:33.886Z,21.10
2019-02-25T20:58:02.378Z,21.10
2019-02-25T21:00:34.911Z,21.10
2019-02-25T21:03:01.272Z,21.10
2019-02-25T21:05:29.571Z,21.10
2019-02-25T21:07:59.783Z,21.00
2019-02-25T21:10:29.922Z,21.10
2019-02-25T21:13:01.463Z,21.10
2019-02-25T21:15:28.609Z,21.10
2019-02-25T21:17:59.368Z,21.10
2019-02-25T21:20:28.834Z,21.00
2019-02-25T21:22:58.705Z,21.00
2019-02-25T21:25:29.150Z,21.00
2019-02-25T21:27:59.932Z,21.00
2019-02-25T21:30:28.038Z,21.00
2019-02-25T21:32:57.237Z,21.00
2019-02-25T21:35:28.254Z,21.00
2019-02-25T21:37:57.007Z,21.00
2019-02-25T21:40:27.768Z,21.00
2019-02-25T21:42:56.632Z,21.00
2019-02-25T21:45:29.039Z,21.00
2019-02-25T21:47:56.476Z,21.00
2019-02-25T21:50:28.441Z,21.00
2019-02-25T21:52:56.077Z,21.00
2019-02-25T21:55:26.226Z,21.00
2019-02-25T21:57:57.241Z,20.90
2019-02-25T22:00:32.006Z,20.90
2019-02-25T22:02:58.721Z,20.90
2019-02-25T22:05:27.028Z,20.90
2019-02-25T22:07:57.311Z,20.90
2019-02-25T22:10:25.698Z,20.90
2019-02-25T22:12:54.303Z,20.90
2019-02-25T22:15:22.797Z,20.90
2019-02-25T22:17:53.389Z,20.90
2019-02-25T22:20:22.510Z,20.90
2019-02-25T22:22:54.616Z,20.90
2019-02-25T22:25:23.048Z,20.90
2019-02-25T22:27:51.825Z,20.90
2019-02-25T22:30:21.899Z,20.90
2019-02-25T22:32:50.277Z,20.90
2019-02-25T22:35:18.565Z,20.90
2019-02-25T22:37:49.454Z,20.90
2019-02-25T22:40:17.650Z,20.90
2019-02-25T22:42:47.846Z,20.90
2019-02-25T22:45:19.018Z,20.90
2019-02-25T22:47:47.867Z,20.90
2019-02-25T22:50:16.159Z,20.90
2019-02-25T22:52:44.841Z,20.90
2019-02-25T22:55:15.378Z,20.90
2019-02-25T22:57:45.703Z,20.90
2019-02-25T23:00:19.763Z,20.90
2019-02-25T23:02:51.772Z,20.90
2019-02-25T23:05:21.205Z,20.90
2019-02-25T23:07:51.900Z,20.90
2019-02-25T23:10:21.823Z,20.90
2019-02-25T23:12:50.066Z,20.90
2019-02-25T23:15:20.358Z,20.90
2019-02-25T23:17:48.451Z,21.00
2019-02-25T23:20:16.774Z,21.00
2019-02-25T23:22:45.650Z,21.00
2019-02-25T23:25:13.945Z,20.90
2019-02-25T23:27:42.251Z,21.00
2019-02-25T23:30:12.654Z,20.90
2019-02-25T23:32:41.418Z,21.00
2019-02-25T23:35:13.664Z,21.00
2019-02-25T23:37:40.019Z,21.00
2019-02-25T23:40:12.532Z,21.00
2019-02-25T23:42:41.882Z,21.00
2019-02-25T23:45:13.461Z,20.90
2019-02-25T23:47:42.838Z,20.90
2019-02-25T23:50:13.687Z,20.90
2019-02-25T23:52:42.185Z,20.90
2019-02-25T23:55:14.291Z,20.90
2019-02-25T23:57:41.899Z,20.80
